createdAt,value
2019-03-22T00:00:28.277Z,35.00
2019-03-22T00:02:57.889Z,34.97
2019-03-22T00:05:27.395Z,35.03
2019-03-22T00:07:56.874Z,35.80
2019-03-22T00:10:26.314Z,37.20
2019-03-22T00:12:55.871Z,34.97
2019-03-22T00:15:25.457Z,36.07
2019-03-22T00:17:54.890Z,36.10
2019-03-22T00:20:24.538Z,35.33
2019-03-22T00:22:54.066Z,35.53
2019-03-22T00:25:23.638Z,35.93
2019-03-22T00:27:53.138Z,36.67
2019-03-22T00:30:22.754Z,34.73
2019-03-22T00:32:54.077Z,35.43
2019-03-22T00:35:23.462Z,36.10
2019-03-22T00:37:52.899Z,35.83
2019-03-22T00:40:22.418Z,33.90
2019-03-22T00:42:51.982Z,34.43
2019-03-22T00:45:21.569Z,33.13
2019-03-22T00:47:50.994Z,34.13
2019-03-22T00:50:20.555Z,32.97
2019-03-22T00:52:50.130Z,35.33
2019-03-22T00:55:19.718Z,36.33
2019-03-22T00:57:49.218Z,34.70
2019-03-22T01:00:19.206Z,33.47
2019-03-22T01:02:49.407Z,34.50
2019-03-22T01:05:19.364Z,33.40
2019-03-22T01:07:48.904Z,32.20
2019-03-22T01:10:18.499Z,33.33
2019-03-22T01:12:48.112Z,32.10
2019-03-22T01:15:17.702Z,33.23
2019-03-22T01:17:47.249Z,33.53
2019-03-22T01:20:16.760Z,35.10
2019-03-22T01:22:46.356Z,33.27
2019-03-22T01:25:15.945Z,33.13
2019-03-22T01:27:45.541Z,31.63
2019-03-22T01:30:15.325Z,32.43
2019-03-22T01:32:44.877Z,32.77
2019-03-22T01:35:14.662Z,32.60
2019-03-22T01:37:44.220Z,32.93
2019-03-22T01:40:15.521Z,34.13
2019-03-22T01:42:45.085Z,34.77
2019-03-22T01:45:15.201Z,33.57
2019-03-22T01:47:44.801Z,36.67
2019-03-22T01:50:15.197Z,34.10
2019-03-22T01:52:44.773Z,35.50
2019-03-22T01:55:14.285Z,35.47
2019-03-22T01:57:53.211Z,32.07
2019-03-22T02:00:15.553Z,31.53
2019-03-22T02:02:45.181Z,31.70
2019-03-22T02:05:14.957Z,32.83
2019-03-22T02:07:45.029Z,32.07
2019-03-22T02:10:14.721Z,31.57
2019-03-22T02:12:44.679Z,30.37
2019-03-22T02:15:15.113Z,31.50
2019-03-22T02:17:44.778Z,30.47
2019-03-22T02:20:15.734Z,30.13
2019-03-22T02:22:45.718Z,28.93
2019-03-22T02:25:15.415Z,30.83
2019-03-22T02:27:44.987Z,27.93
2019-03-22T02:30:15.333Z,29.33
2019-03-22T02:32:44.913Z,25.63
2019-03-22T02:35:27.691Z,26.33
2019-03-22T02:37:45.738Z,27.10
2019-03-22T02:40:15.325Z,25.90
2019-03-22T02:42:44.927Z,27.17
2019-03-22T02:45:14.899Z,25.37
2019-03-22T02:47:44.431Z,26.37
2019-03-22T02:50:19.097Z,29.50
2019-03-22T02:52:47.262Z,25.63
2019-03-22T02:55:17.099Z,27.03
2019-03-22T02:57:46.747Z,26.97
2019-03-22T03:00:17.095Z,30.07
2019-03-22T03:02:46.813Z,27.13
2019-03-22T03:05:17.234Z,26.33
2019-03-22T03:07:46.818Z,27.07
2019-03-22T03:10:17.098Z,28.07
2019-03-22T03:12:47.060Z,27.20
2019-03-22T03:15:17.235Z,25.97
2019-03-22T03:17:46.811Z,28.83
2019-03-22T03:20:16.631Z,28.47
2019-03-22T03:22:46.308Z,28.00
2019-03-22T03:25:16.115Z,27.00
2019-03-22T03:27:45.699Z,27.50
2019-03-22T03:30:17.656Z,27.13
2019-03-22T03:32:47.325Z,27.27
2019-03-22T03:35:17.275Z,25.90
2019-03-22T03:37:46.941Z,27.43
2019-03-22T03:40:17.207Z,27.20
2019-03-22T03:42:47.052Z,25.97
2019-03-22T03:45:35.653Z,26.57
2019-03-22T03:48:06.746Z,25.20
2019-03-22T03:50:36.323Z,27.63
2019-03-22T03:53:06.436Z,27.33
2019-03-22T03:55:36.078Z,27.10
2019-03-22T03:58:06.147Z,27.60
2019-03-22T04:00:36.080Z,25.80
2019-03-22T04:03:05.693Z,26.43
2019-03-22T04:05:35.254Z,27.37
2019-03-22T04:08:05.200Z,28.00
2019-03-22T04:10:34.682Z,26.47
2019-03-22T04:13:04.205Z,26.27
2019-03-22T04:15:33.716Z,26.30
2019-03-22T04:18:03.528Z,25.10
2019-03-22T04:20:33.108Z,28.13
2019-03-22T04:23:02.935Z,28.27
2019-03-22T04:25:32.493Z,26.87
2019-03-22T04:28:01.952Z,26.40
2019-03-22T04:30:31.604Z,26.63
2019-03-22T04:33:01.158Z,25.87
2019-03-22T04:35:30.721Z,26.17
2019-03-22T04:38:00.162Z,26.60
2019-03-22T04:40:30.395Z,25.67
2019-03-22T04:43:00.038Z,27.43
2019-03-22T04:45:31.558Z,28.30
2019-03-22T04:48:06.165Z,28.53
2019-03-22T04:50:39.489Z,27.27
2019-03-22T04:53:11.585Z,27.33
2019-03-22T04:55:44.097Z,27.23
2019-03-22T04:58:14.475Z,29.00
2019-03-22T05:00:44.692Z,27.37
2019-03-22T05:03:14.645Z,27.70
2019-03-22T05:05:46.461Z,27.27
2019-03-22T05:08:16.781Z,28.47
2019-03-22T05:10:46.997Z,26.80
2019-03-22T05:13:19.849Z,29.17
2019-03-22T05:15:50.606Z,27.97
2019-03-22T05:18:21.041Z,27.33
2019-03-22T05:20:51.933Z,27.07
2019-03-22T05:23:23.489Z,28.97
2019-03-22T05:25:56.117Z,29.07
2019-03-22T05:28:28.123Z,30.07
2019-03-22T05:31:26.490Z,29.73
2019-03-22T05:33:55.986Z,30.97
2019-03-22T05:36:25.573Z,29.93
2019-03-22T05:38:55.234Z,28.70
2019-03-22T05:41:24.704Z,29.53
2019-03-22T05:43:54.154Z,28.20
2019-03-22T05:46:23.653Z,27.73
2019-03-22T05:48:53.149Z,29.90
2019-03-22T05:51:22.569Z,28.70
2019-03-22T05:53:52.682Z,28.73
2019-03-22T05:56:23.236Z,32.37
2019-03-22T05:58:52.722Z,28.50
2019-03-22T06:01:22.220Z,28.93
2019-03-22T06:03:51.742Z,28.93
2019-03-22T06:06:21.249Z,28.33
2019-03-22T06:08:50.661Z,28.60
2019-03-22T06:11:20.221Z,29.90
2019-03-22T06:13:49.721Z,32.67
2019-03-22T06:16:19.528Z,34.60
2019-03-22T06:18:50.453Z,33.67
2019-03-22T06:21:20.473Z,30.47
2019-03-22T06:23:49.964Z,31.30
2019-03-22T06:26:19.549Z,30.43
2019-03-22T06:28:49.071Z,33.20
2019-03-22T06:31:20.795Z,29.73
2019-03-22T06:33:50.021Z,31.13
2019-03-22T06:36:19.540Z,33.87
2019-03-22T06:38:49.105Z,30.17
2019-03-22T06:41:18.605Z,29.33
2019-03-22T06:43:48.118Z,29.80
2019-03-22T06:46:17.697Z,28.57
2019-03-22T06:48:47.277Z,28.50
2019-03-22T06:51:16.917Z,29.17
2019-03-22T06:53:46.401Z,29.23
2019-03-22T06:56:15.961Z,28.90
2019-03-22T06:58:45.540Z,27.30
2019-03-22T07:01:15.041Z,28.97
2019-03-22T07:03:44.730Z,28.87
2019-03-22T07:06:14.169Z,29.53
2019-03-22T07:08:43.638Z,30.00
2019-03-22T07:11:13.327Z,28.60
2019-03-22T07:13:42.839Z,29.37
2019-03-22T07:16:12.321Z,27.93
2019-03-22T07:18:41.729Z,26.97
2019-03-22T07:21:11.249Z,24.20
2019-03-22T07:23:40.893Z,26.33
2019-03-22T07:26:10.833Z,26.20
2019-03-22T07:28:40.390Z,27.00
2019-03-22T07:31:09.949Z,27.10
2019-03-22T07:33:39.773Z,26.93
2019-03-22T07:36:09.315Z,27.70
2019-03-22T07:38:38.834Z,26.77
2019-03-22T07:41:08.481Z,28.53
2019-03-22T07:43:38.250Z,27.60
2019-03-22T07:46:07.824Z,27.20
2019-03-22T07:48:37.382Z,26.27
2019-03-22T07:51:06.902Z,26.37
2019-03-22T07:53:36.470Z,29.03
2019-03-22T07:56:06.062Z,28.97
2019-03-22T07:58:35.548Z,27.93
2019-03-22T08:01:05.482Z,29.27
2019-03-22T08:03:35.074Z,29.30
2019-03-22T08:06:04.891Z,28.63
2019-03-22T08:08:34.383Z,30.50
2019-03-22T08:11:03.993Z,33.77
2019-03-22T08:13:33.611Z,37.73
2019-03-22T08:16:03.356Z,35.80
2019-03-22T08:18:32.886Z,35.17
2019-03-22T08:21:02.450Z,37.13
2019-03-22T08:23:31.947Z,36.87
2019-03-22T08:26:01.491Z,38.63
2019-03-22T08:28:31.119Z,38.50
2019-03-22T08:31:01.043Z,40.07
2019-03-22T08:33:30.660Z,38.80
2019-03-22T08:36:00.215Z,37.23
2019-03-22T08:38:29.727Z,36.87
2019-03-22T08:40:59.659Z,36.40
2019-03-22T08:43:29.072Z,36.30
2019-03-22T08:45:58.539Z,34.43
2019-03-22T08:48:28.059Z,35.93
2019-03-22T08:50:57.551Z,34.77
2019-03-22T08:53:27.214Z,35.30
2019-03-22T08:55:56.931Z,33.30
2019-03-22T08:58:26.580Z,33.40
2019-03-22T09:00:57.824Z,33.60
2019-03-22T09:03:27.293Z,34.27
2019-03-22T09:05:56.775Z,34.50
2019-03-22T09:08:26.449Z,33.20
2019-03-22T09:10:56.203Z,34.87
2019-03-22T09:13:25.707Z,34.53
2019-03-22T09:15:55.210Z,34.23
2019-03-22T09:18:24.846Z,32.87
2019-03-22T09:20:54.413Z,33.27
2019-03-22T09:23:23.871Z,33.27
2019-03-22T09:25:53.737Z,32.87
2019-03-22T09:28:23.378Z,33.13
2019-03-22T09:30:52.993Z,31.63
2019-03-22T09:33:22.652Z,32.57
2019-03-22T09:35:52.283Z,32.87
2019-03-22T09:38:23.001Z,32.13
2019-03-22T09:40:52.693Z,33.37
2019-03-22T09:43:22.265Z,31.93
2019-03-22T09:45:51.957Z,32.90
2019-03-22T09:48:21.923Z,32.87
2019-03-22T09:50:51.492Z,33.17
2019-03-22T09:53:21.493Z,31.17
2019-03-22T09:55:51.473Z,31.37
2019-03-22T09:58:21.105Z,31.30
2019-03-22T10:00:50.609Z,31.47
2019-03-22T10:03:20.480Z,31.10
2019-03-22T10:05:50.025Z,30.37
2019-03-22T10:08:19.754Z,30.87
2019-03-22T10:10:49.724Z,30.17
2019-03-22T10:13:19.192Z,30.57
2019-03-22T10:15:48.730Z,29.77
2019-03-22T10:18:18.288Z,46.23
2019-03-22T10:20:47.849Z,28.13
2019-03-22T10:23:17.442Z,30.27
2019-03-22T10:25:47.045Z,28.13
2019-03-22T10:28:16.932Z,29.50
2019-03-22T10:30:46.570Z,29.17
2019-03-22T10:33:22.745Z,28.67
2019-03-22T10:35:47.528Z,27.00
2019-03-22T10:38:30.710Z,28.93
2019-03-22T10:40:48.377Z,29.17
2019-03-22T10:43:17.897Z,28.80
2019-03-22T10:45:47.591Z,28.07
2019-03-22T10:48:17.258Z,26.77
2019-03-22T10:50:46.848Z,27.33
2019-03-22T10:53:16.453Z,28.23
2019-03-22T10:55:46.122Z,26.17
2019-03-22T10:58:21.519Z,25.80
2019-03-22T11:00:47.053Z,26.63
2019-03-22T11:03:16.589Z,25.70
2019-03-22T11:05:46.202Z,26.43
2019-03-22T11:08:15.713Z,25.97
2019-03-22T11:10:45.317Z,21.23
2019-03-22T11:13:14.841Z,22.70
2019-03-22T11:15:48.793Z,21.60
2019-03-22T11:18:16.249Z,22.43
2019-03-22T11:20:46.186Z,21.00
2019-03-22T11:23:15.689Z,19.00
2019-03-22T11:25:45.217Z,18.40
2019-03-22T11:28:14.815Z,18.40
2019-03-22T11:30:44.430Z,16.80
2019-03-22T11:33:14.071Z,18.83
2019-03-22T11:35:43.646Z,18.80
2019-03-22T11:38:13.218Z,17.87
2019-03-22T11:40:42.830Z,18.27
2019-03-22T11:43:12.442Z,15.30
2019-03-22T11:45:42.390Z,12.33
2019-03-22T11:48:12.001Z,13.03
2019-03-22T11:50:41.595Z,11.77
2019-03-22T11:53:11.758Z,9.50
2019-03-22T11:55:41.678Z,10.03
2019-03-22T11:58:11.333Z,10.67
2019-03-22T12:00:40.943Z,10.90
2019-03-22T12:03:10.566Z,10.57
2019-03-22T12:05:40.762Z,11.27
2019-03-22T12:08:10.490Z,10.57
2019-03-22T12:10:40.106Z,11.13
2019-03-22T12:13:09.607Z,10.67
2019-03-22T12:15:39.226Z,10.33
2019-03-22T12:18:08.818Z,10.97
2019-03-22T12:20:38.422Z,11.27
2019-03-22T12:23:08.090Z,11.37
2019-03-22T12:25:38.070Z,12.70
2019-03-22T12:28:07.754Z,12.07
2019-03-22T12:30:37.390Z,11.50
2019-03-22T12:33:06.991Z,10.67
2019-03-22T12:35:36.576Z,11.40
2019-03-22T12:38:06.155Z,9.97
2019-03-22T12:40:35.792Z,9.83
2019-03-22T12:43:05.519Z,9.80
2019-03-22T12:45:35.211Z,9.67
2019-03-22T12:48:05.027Z,11.33
2019-03-22T12:50:34.638Z,11.00
2019-03-22T12:53:04.180Z,10.10
2019-03-22T12:55:33.851Z,11.37
2019-03-22T12:58:03.455Z,10.25
2019-03-22T13:00:33.479Z,11.38
2019-03-22T13:03:03.525Z,10.73
2019-03-22T13:05:33.156Z,10.07
2019-03-22T13:08:02.811Z,10.37
2019-03-22T13:10:32.483Z,9.93
2019-03-22T13:13:02.207Z,10.15
2019-03-22T13:15:31.771Z,10.93
2019-03-22T13:18:01.323Z,9.43
2019-03-22T13:20:30.944Z,9.40
2019-03-22T13:23:00.528Z,9.30
2019-03-22T13:25:30.211Z,9.83
2019-03-22T13:27:59.947Z,9.80
2019-03-22T13:30:34.409Z,9.90
2019-03-22T13:33:04.207Z,10.20
2019-03-22T13:35:33.787Z,10.50
2019-03-22T13:38:06.172Z,10.20
2019-03-22T13:40:35.987Z,10.23
2019-03-22T13:43:05.584Z,10.53
2019-03-22T13:45:35.186Z,10.35
2019-03-22T13:48:04.892Z,10.78
2019-03-22T13:50:34.436Z,10.55
2019-03-22T13:53:04.084Z,10.93
2019-03-22T13:55:33.638Z,9.23
2019-03-22T13:58:03.313Z,9.23
2019-03-22T14:00:32.828Z,10.10
2019-03-22T14:03:03.257Z,9.10
2019-03-22T14:05:33.028Z,9.40
2019-03-22T14:08:02.673Z,9.23
2019-03-22T14:10:34.737Z,8.98
2019-03-22T14:13:05.064Z,8.63
2019-03-22T14:15:34.637Z,8.70
2019-03-22T14:18:04.768Z,8.70
2019-03-22T14:20:34.360Z,8.73
2019-03-22T14:23:04.000Z,8.60
2019-03-22T14:25:33.793Z,8.60
2019-03-22T14:28:03.473Z,9.03
2019-03-22T14:30:33.148Z,8.63
2019-03-22T14:33:12.580Z,9.07
2019-03-22T14:35:34.220Z,8.17
2019-03-22T14:38:03.877Z,9.13
2019-03-22T14:40:33.441Z,9.23
2019-03-22T14:43:03.037Z,9.80
2019-03-22T14:45:32.742Z,9.87
2019-03-22T14:48:02.240Z,10.20
2019-03-22T14:50:31.829Z,9.27
2019-03-22T14:53:01.333Z,9.37
2019-03-22T14:55:31.078Z,9.87
2019-03-22T14:58:01.070Z,10.10
2019-03-22T15:00:30.621Z,9.90
2019-03-22T15:03:00.066Z,10.17
2019-03-22T15:05:29.561Z,9.67
2019-03-22T15:07:59.359Z,9.20
2019-03-22T15:10:28.999Z,9.20
2019-03-22T15:12:58.506Z,9.27
2019-03-22T15:16:05.534Z,9.23
2019-03-22T15:18:42.891Z,9.07
2019-03-22T15:21:29.954Z,8.83
2019-03-22T15:24:11.530Z,8.90
2019-03-22T15:26:58.601Z,8.73
2019-03-22T15:29:47.370Z,8.63
2019-03-22T15:32:51.037Z,8.40
2019-03-22T15:35:34.247Z,8.65
2019-03-22T15:38:28.825Z,8.77
2019-03-22T15:40:58.466Z,8.80
2019-03-22T15:43:27.962Z,8.45
2019-03-22T15:45:57.548Z,8.75
2019-03-22T15:48:27.115Z,8.37
2019-03-22T15:50:56.763Z,9.97
2019-03-22T15:53:26.787Z,9.33
2019-03-22T15:55:56.295Z,8.93
2019-03-22T15:58:25.895Z,8.33
2019-03-22T16:00:55.491Z,9.30
2019-03-22T16:03:25.320Z,9.07
2019-03-22T16:05:54.915Z,8.08
2019-03-22T16:08:24.427Z,9.10
2019-03-22T16:10:54.188Z,8.90
2019-03-22T16:13:23.879Z,8.77
2019-03-22T16:15:53.475Z,7.70
2019-03-22T16:18:22.920Z,8.13
2019-03-22T16:20:59.859Z,7.57
2019-03-22T16:23:23.807Z,7.57
2019-03-22T16:25:53.419Z,8.67
2019-03-22T16:28:22.859Z,8.03
2019-03-22T16:30:52.435Z,7.97
2019-03-22T16:33:21.959Z,9.00
2019-03-22T16:35:51.479Z,8.30
2019-03-22T16:38:21.003Z,8.07
2019-03-22T16:40:50.512Z,7.60
2019-03-22T16:43:20.084Z,7.80
2019-03-22T16:45:49.675Z,8.10
2019-03-22T16:48:19.240Z,7.90
2019-03-22T16:50:48.814Z,7.97
2019-03-22T16:53:18.248Z,8.13
2019-03-22T16:55:48.159Z,8.93
2019-03-22T16:58:17.701Z,8.20
2019-03-22T17:00:49.788Z,8.10
2019-03-22T17:03:18.544Z,8.17
2019-03-22T17:05:48.188Z,8.50
2019-03-22T17:08:17.772Z,8.97
2019-03-22T17:10:47.344Z,8.47
2019-03-22T17:13:17.229Z,10.83
2019-03-22T17:15:48.625Z,8.00
2019-03-22T17:18:18.232Z,8.73
2019-03-22T17:20:47.851Z,8.30
2019-03-22T17:23:17.349Z,10.00
2019-03-22T17:25:46.855Z,9.03
2019-03-22T17:28:16.385Z,8.47
2019-03-22T17:30:45.964Z,8.10
2019-03-22T17:33:15.553Z,8.67
2019-03-22T17:35:45.085Z,7.53
2019-03-22T17:38:14.589Z,7.60
2019-03-22T17:40:44.046Z,7.40
2019-03-22T17:43:13.685Z,8.13
2019-03-22T17:45:43.174Z,9.27
2019-03-22T17:48:12.762Z,11.50
2019-03-22T17:50:42.442Z,17.00
2019-03-22T17:53:11.959Z,11.47
2019-03-22T17:55:41.518Z,11.93
2019-03-22T17:58:10.938Z,11.77
2019-03-22T18:00:40.707Z,11.13
2019-03-22T18:03:10.642Z,10.77
2019-03-22T18:05:40.249Z,10.40
2019-03-22T18:08:09.669Z,10.47
2019-03-22T18:10:39.082Z,10.93
2019-03-22T18:13:08.885Z,10.73
2019-03-22T18:15:38.646Z,11.77
2019-03-22T18:18:08.079Z,10.80
2019-03-22T18:20:37.511Z,10.50
2019-03-22T18:23:07.067Z,10.93
2019-03-22T18:25:36.915Z,12.17
2019-03-22T18:28:06.526Z,11.83
2019-03-22T18:30:36.009Z,12.17
2019-03-22T18:33:05.597Z,10.97
2019-03-22T18:35:35.175Z,10.63
2019-03-22T18:38:04.795Z,10.40
2019-03-22T18:40:34.463Z,11.50
2019-03-22T18:43:04.008Z,11.73
2019-03-22T18:45:33.599Z,12.70
2019-03-22T18:48:03.199Z,12.00
2019-03-22T18:50:32.707Z,11.77
2019-03-22T18:53:02.216Z,15.37
2019-03-22T18:55:32.030Z,21.93
2019-03-22T18:58:01.455Z,18.20
2019-03-22T19:00:31.131Z,17.57
2019-03-22T19:03:00.698Z,17.10
2019-03-22T19:05:30.211Z,17.47
2019-03-22T19:07:59.798Z,18.17
2019-03-22T19:10:29.352Z,15.00
2019-03-22T19:12:58.847Z,13.87
2019-03-22T19:15:28.423Z,13.57
2019-03-22T19:17:57.928Z,13.60
2019-03-22T19:20:27.522Z,16.30
2019-03-22T19:22:57.102Z,14.93
2019-03-22T19:25:26.690Z,17.80
2019-03-22T19:27:56.359Z,17.57
2019-03-22T19:30:25.868Z,17.57
2019-03-22T19:32:55.776Z,17.13
2019-03-22T19:35:25.290Z,15.67
2019-03-22T19:37:54.796Z,15.23
2019-03-22T19:40:24.316Z,15.67
2019-03-22T19:42:53.889Z,17.50
2019-03-22T19:45:23.448Z,20.10
2019-03-22T19:47:53.108Z,21.03
2019-03-22T19:50:22.560Z,18.17
2019-03-22T19:52:52.192Z,17.00
2019-03-22T19:55:21.754Z,18.50
2019-03-22T19:57:51.434Z,18.13
2019-03-22T20:00:21.148Z,17.17
2019-03-22T20:02:50.720Z,16.87
2019-03-22T20:05:33.153Z,15.40
2019-03-22T20:08:03.079Z,15.53
2019-03-22T20:10:32.776Z,16.77
2019-03-22T20:13:02.485Z,15.60
2019-03-22T20:15:32.070Z,16.10
2019-03-22T20:18:01.669Z,15.33
2019-03-22T20:20:31.248Z,16.23
2019-03-22T20:23:00.861Z,15.50
2019-03-22T20:25:30.381Z,14.60
2019-03-22T20:27:59.946Z,15.27
2019-03-22T20:30:29.445Z,14.90
2019-03-22T20:32:58.946Z,18.37
2019-03-22T20:35:28.471Z,20.53
2019-03-22T20:37:58.002Z,20.93
2019-03-22T20:40:27.407Z,22.33
2019-03-22T20:42:56.918Z,19.97
2019-03-22T20:45:26.589Z,18.70
2019-03-22T20:47:56.175Z,17.07
2019-03-22T20:50:35.347Z,15.27
2019-03-22T20:52:56.847Z,17.03
2019-03-22T20:55:26.285Z,16.47
2019-03-22T20:57:55.783Z,15.60
2019-03-22T21:00:27.350Z,17.60
2019-03-22T21:02:56.495Z,17.23
2019-03-22T21:05:27.228Z,17.03
2019-03-22T21:07:57.067Z,21.37
2019-03-22T21:10:26.583Z,31.03
2019-03-22T21:12:56.033Z,29.43
2019-03-22T21:15:25.704Z,26.63
2019-03-22T21:17:55.195Z,22.93
2019-03-22T21:20:24.777Z,21.17
2019-03-22T21:22:54.256Z,22.90
2019-03-22T21:25:23.832Z,20.30
2019-03-22T21:27:53.364Z,18.97
2019-03-22T21:30:22.991Z,20.00
2019-03-22T21:32:52.580Z,20.63
2019-03-22T21:35:23.086Z,20.43
2019-03-22T21:37:52.842Z,19.13
2019-03-22T21:40:22.378Z,20.47
2019-03-22T21:42:51.893Z,21.23
2019-03-22T21:45:21.472Z,20.37
2019-03-22T21:47:50.908Z,17.93
2019-03-22T21:50:20.426Z,16.17
2019-03-22T21:52:50.152Z,17.37
2019-03-22T21:55:19.697Z,16.43
2019-03-22T21:57:49.230Z,16.27
2019-03-22T22:00:18.907Z,16.77
2019-03-22T22:02:48.670Z,17.97
2019-03-22T22:05:18.220Z,17.87
2019-03-22T22:07:47.732Z,22.83
2019-03-22T22:10:17.247Z,22.03
2019-03-22T22:12:46.820Z,20.93
2019-03-22T22:15:16.425Z,21.17
2019-03-22T22:17:45.928Z,19.67
2019-03-22T22:20:15.497Z,19.33
2019-03-22T22:22:45.025Z,18.23
2019-03-22T22:25:14.585Z,17.67
2019-03-22T22:27:44.085Z,18.03
2019-03-22T22:30:13.796Z,19.80
2019-03-22T22:32:43.548Z,19.60
2019-03-22T22:35:13.141Z,19.23
2019-03-22T22:37:42.677Z,18.67
2019-03-22T22:40:12.348Z,18.77
2019-03-22T22:42:42.721Z,19.23
2019-03-22T22:45:12.840Z,20.17
2019-03-22T22:47:42.409Z,18.83
2019-03-22T22:50:12.430Z,19.57
2019-03-22T22:52:41.998Z,21.60
2019-03-22T22:55:11.793Z,20.43
2019-03-22T22:57:41.309Z,20.50
2019-03-22T23:00:13.677Z,18.10
2019-03-22T23:02:43.332Z,17.40
2019-03-22T23:05:12.909Z,17.90
2019-03-22T23:07:42.409Z,18.70
2019-03-22T23:10:12.791Z,17.70
2019-03-22T23:12:43.241Z,17.83
2019-03-22T23:15:12.909Z,18.03
2019-03-22T23:17:42.413Z,17.10
2019-03-22T23:20:12.061Z,16.37
2019-03-22T23:22:41.573Z,16.90
2019-03-22T23:25:11.343Z,17.40
2019-03-22T23:27:41.342Z,18.47
2019-03-22T23:30:11.124Z,18.87
2019-03-22T23:32:40.641Z,18.73
2019-03-22T23:35:10.761Z,19.40
2019-03-22T23:37:40.238Z,20.70
2019-03-22T23:40:09.970Z,20.23
2019-03-22T23:42:39.574Z,20.43
2019-03-22T23:45:09.149Z,21.90
2019-03-22T23:47:38.655Z,22.60
2019-03-22T23:50:08.507Z,22.03
2019-03-22T23:52:38.097Z,22.10
2019-03-22T23:55:08.210Z,23.07
2019-03-22T23:57:37.702Z,21.80
